Time;durP1;ratioP1;P1;durP2;ratioP2;P2;SDS_P1;SDS_P2;PMS_P1;PMS_P2;Temp;Humidity;BMP_temperature;BMP_pressure;BME280_temperature;BME280_humidity;BME280_pressure;Samples;Min_cycle;Max_cycle;Signal;HPM_P1;HPM_P2
2021/09/17 00:00:40;;;;;;;58.50;46.33;;;;;;;;;;5077118;28;20713;-74
2021/09/17 00:03:07;;;;;;;65.07;48.27;;;;;;;;;;5075151;28;20253;-74
2021/09/17 00:05:34;;;;;;;65.77;48.70;;;;;;;;;;5076796;28;20224;-74
2021/09/17 00:08:00;;;;;;;69.03;49.67;;;;;;;;;;5073868;28;20221;-73
2021/09/17 00:10:27;;;;;;;69.07;48.97;;;;;;;;;;5076769;28;20222;-73
2021/09/17 00:12:54;;;;;;;77.07;52.07;;;;;;;;;;5076970;28;20217;-73
2021/09/17 00:15:22;;;;;;;71.37;50.70;;;;;;;;;;5076011;28;20257;-73
2021/09/17 00:17:48;;;;;;;74.30;50.73;;;;;;;;;;5078547;28;20588;-73
2021/09/17 00:20:16;;;;;;;71.23;51.37;;;;;;;;;;5076342;28;20208;-73
2021/09/17 00:22:43;;;;;;;77.63;53.83;;;;;;;;;;5075938;28;20210;-73
2021/09/17 00:25:11;;;;;;;69.00;50.73;;;;;;;;;;5075052;28;20226;-73
2021/09/17 00:27:37;;;;;;;75.33;53.00;;;;;;;;;;5075970;28;20690;-73
2021/09/17 00:30:04;;;;;;;80.27;54.67;;;;;;;;;;5075751;28;20237;-73
2021/09/17 00:32:32;;;;;;;83.13;54.43;;;;;;;;;;5076770;28;20234;-73
2021/09/17 00:34:59;;;;;;;79.67;54.30;;;;;;;;;;5073418;28;20270;-73
2021/09/17 00:37:25;;;;;;;66.17;50.10;;;;;;;;;;5074264;28;20231;-73
2021/09/17 00:39:52;;;;;;;60.67;45.30;;;;;;;;;;5076311;28;20209;-73
2021/09/17 00:42:18;;;;;;;66.73;48.90;;;;;;;;;;5073894;28;20613;-73
2021/09/17 00:44:45;;;;;;;61.40;45.87;;;;;;;;;;5073021;28;20259;-73
2021/09/17 00:47:11;;;;;;;70.20;48.83;;;;;;;;;;5073946;28;20225;-73
2021/09/17 00:49:39;;;;;;;78.07;49.43;;;;;;;;;;5075138;28;20354;-73
2021/09/17 00:52:06;;;;;;;77.20;51.47;;;;;;;;;;5075785;28;20265;-74
2021/09/17 00:54:34;;;;;;;58.73;45.03;;;;;;;;;;5075997;28;20255;-74
2021/09/17 00:57:01;;;;;;;64.97;46.43;;;;;;;;;;5076058;28;20217;-74
2021/09/17 00:59:27;;;;;;;67.27;46.73;;;;;;;;;;5076690;28;20691;-74
2021/09/17 01:01:54;;;;;;;61.50;45.17;;;;;;;;;;5075485;28;20318;-73
2021/09/17 01:04:22;;;;;;;61.13;44.30;;;;;;;;;;5074994;28;20259;-74
2021/09/17 01:06:49;;;;;;;68.97;48.37;;;;;;;;;;5074427;28;20301;-73
2021/09/17 01:09:16;;;;;;;71.83;47.53;;;;;;;;;;5075888;28;20229;-73
2021/09/17 01:11:43;;;;;;;69.30;45.17;;;;;;;;;;5073301;28;20219;-74
2021/09/17 01:14:10;;;;;;;74.87;49.37;;;;;;;;;;5074541;28;20535;-74
2021/09/17 01:16:37;;;;;;;68.13;47.80;;;;;;;;;;5075273;28;20278;-73
2021/09/17 01:19:03;;;;;;;73.87;50.30;;;;;;;;;;5074837;28;20228;-73
2021/09/17 01:21:31;;;;;;;74.57;49.53;;;;;;;;;;5074232;28;20223;-73
2021/09/17 01:23:57;;;;;;;73.63;50.43;;;;;;;;;;5073952;28;20267;-74
2021/09/17 01:26:23;;;;;;;75.97;50.33;;;;;;;;;;5075109;28;20217;-73
2021/09/17 01:28:50;;;;;;;72.37;49.87;;;;;;;;;;5075230;28;20232;-74
2021/09/17 01:31:17;;;;;;;83.37;54.70;;;;;;;;;;5074878;28;21160;-74
2021/09/17 01:33:44;;;;;;;78.37;53.27;;;;;;;;;;5072746;28;20214;-74
2021/09/17 01:36:11;;;;;;;70.03;49.43;;;;;;;;;;5076344;28;20338;-73
2021/09/17 01:38:41;;;;;;;73.80;51.43;;;;;;;;;;5073518;28;20214;-73
2021/09/17 01:41:09;;;;;;;64.77;48.43;;;;;;;;;;5076756;28;20616;-73
2021/09/17 01:43:35;;;;;;;69.03;49.57;;;;;;;;;;5075565;28;20742;-73
2021/09/17 01:46:02;;;;;;;72.70;51.63;;;;;;;;;;5074492;28;20216;-73
2021/09/17 01:48:29;;;;;;;77.27;51.73;;;;;;;;;;5074097;28;20283;-73
2021/09/17 01:50:56;;;;;;;72.33;52.43;;;;;;;;;;5074395;28;20217;-74
2021/09/17 01:53:22;;;;;;;78.77;52.10;;;;;;;;;;5073468;28;20209;-74
2021/09/17 01:55:50;;;;;;;79.90;52.40;;;;;;;;;;5075220;28;20224;-74
2021/09/17 01:58:17;;;;;;;82.83;55.03;;;;;;;;;;5072523;28;20271;-73
2021/09/17 02:00:43;;;;;;;86.57;55.20;;;;;;;;;;5073280;28;20240;-74
2021/09/17 02:03:10;;;;;;;92.23;58.73;;;;;;;;;;5072789;28;20299;-74
2021/09/17 02:05:36;;;;;;;87.87;56.20;;;;;;;;;;5073983;28;20212;-74
2021/09/17 02:08:03;;;;;;;100.90;58.67;;;;;;;;;;5074689;28;20255;-74
2021/09/17 02:10:30;;;;;;;84.07;55.27;;;;;;;;;;5073066;28;20314;-74
2021/09/17 02:12:57;;;;;;;78.60;53.43;;;;;;;;;;5073960;28;20230;-74
2021/09/17 02:15:24;;;;;;;85.83;56.30;;;;;;;;;;5076482;28;20217;-74
2021/09/17 02:17:50;;;;;;;82.03;54.77;;;;;;;;;;5077792;28;20286;-74
2021/09/17 02:20:17;;;;;;;85.60;56.33;;;;;;;;;;5078589;28;20262;-74
2021/09/17 02:22:43;;;;;;;86.47;55.53;;;;;;;;;;5077984;28;20276;-74
2021/09/17 02:25:10;;;;;;;81.03;52.83;;;;;;;;;;5077337;28;20210;-74
2021/09/17 02:27:37;;;;;;;80.53;53.13;;;;;;;;;;5076379;28;20217;-74
2021/09/17 02:30:07;;;;;;;83.43;55.17;;;;;;;;;;5079718;28;20237;-74
2021/09/17 02:32:34;;;;;;;79.77;53.90;;;;;;;;;;5078802;28;20234;-74
2021/09/17 02:35:00;;;;;;;80.80;54.70;;;;;;;;;;5075430;28;20665;-74
2021/09/17 02:37:26;;;;;;;90.70;58.03;;;;;;;;;;5077041;28;20234;-74
2021/09/17 02:39:53;;;;;;;84.93;56.27;;;;;;;;;;5080469;28;20210;-74
2021/09/17 02:42:19;;;;;;;111.03;64.97;;;;;;;;;;5078131;28;20217;-74
2021/09/17 02:44:46;;;;;;;116.40;64.50;;;;;;;;;;5078545;28;20689;-73
2021/09/17 02:47:13;;;;;;;105.40;61.23;;;;;;;;;;5078539;28;20225;-73
2021/09/17 02:49:40;;;;;;;99.00;60.80;;;;;;;;;;5076982;28;20237;-73
2021/09/17 02:52:07;;;;;;;88.33;57.73;;;;;;;;;;5077733;28;20214;-73
2021/09/17 02:54:33;;;;;;;101.00;62.37;;;;;;;;;;5078612;28;20772;-73
2021/09/17 02:56:59;;;;;;;126.77;65.77;;;;;;;;;;5076220;28;20267;-73
2021/09/17 02:59:26;;;;;;;127.47;67.97;;;;;;;;;;5078027;28;20221;-73
2021/09/17 03:01:52;;;;;;;128.27;64.33;;;;;;;;;;5077566;28;20242;-73
2021/09/17 03:04:20;;;;;;;134.60;69.13;;;;;;;;;;5076436;28;20551;-73
2021/09/17 03:06:46;;;;;;;103.33;63.50;;;;;;;;;;5075377;28;20271;-73
2021/09/17 03:09:13;;;;;;;102.93;60.70;;;;;;;;;;5076063;28;20709;-74
2021/09/17 03:11:39;;;;;;;137.90;69.60;;;;;;;;;;5076649;28;20235;-74
2021/09/17 03:14:06;;;;;;;148.90;72.63;;;;;;;;;;5078723;28;20209;-74
2021/09/17 03:16:32;;;;;;;124.63;67.00;;;;;;;;;;5078321;28;20225;-74
2021/09/17 03:18:58;;;;;;;108.67;62.07;;;;;;;;;;5077831;28;20280;-74
2021/09/17 03:21:26;;;;;;;118.80;64.17;;;;;;;;;;5075196;28;20673;-74
2021/09/17 03:23:52;;;;;;;110.70;64.00;;;;;;;;;;5075785;28;20210;-74
2021/09/17 03:26:19;;;;;;;152.87;72.43;;;;;;;;;;5076139;28;20218;-74
2021/09/17 03:28:45;;;;;;;133.17;70.37;;;;;;;;;;5076846;28;20270;-74
2021/09/17 03:31:12;;;;;;;132.27;69.47;;;;;;;;;;5077501;28;20689;-75
2021/09/17 03:33:38;;;;;;;124.93;67.30;;;;;;;;;;5076076;28;20300;-74
2021/09/17 03:36:05;;;;;;;120.63;65.63;;;;;;;;;;5076976;28;20256;-73
2021/09/17 03:38:33;;;;;;;133.07;67.13;;;;;;;;;;5075304;28;20263;-74
2021/09/17 03:40:59;;;;;;;115.77;63.97;;;;;;;;;;5077041;28;20262;-74
2021/09/17 03:43:26;;;;;;;126.03;64.87;;;;;;;;;;5076819;28;20198;-74
2021/09/17 03:45:52;;;;;;;128.73;67.20;;;;;;;;;;5078120;28;20205;-74
2021/09/17 03:48:19;;;;;;;109.90;63.17;;;;;;;;;;5077061;28;20576;-74
2021/09/17 03:50:45;;;;;;;96.97;60.67;;;;;;;;;;5077701;28;20238;-74
2021/09/17 03:53:12;;;;;;;136.67;68.37;;;;;;;;;;5077458;28;20213;-74
2021/09/17 03:55:40;;;;;;;124.73;65.43;;;;;;;;;;5075507;28;20260;-74
2021/09/17 03:58:06;;;;;;;121.20;64.80;;;;;;;;;;5076061;28;20210;-74
2021/09/17 04:00:33;;;;;;;100.10;62.13;;;;;;;;;;5074883;28;20612;-73
2021/09/17 04:03:00;;;;;;;122.40;67.60;;;;;;;;;;5073881;28;20246;-73
2021/09/17 04:05:26;;;;;;;100.67;60.30;;;;;;;;;;5075032;28;20213;-73
2021/09/17 04:07:52;;;;;;;154.80;71.80;;;;;;;;;;5075735;28;20254;-73
2021/09/17 04:10:19;;;;;;;119.30;63.83;;;;;;;;;;5076031;28;20233;-74
2021/09/17 04:12:48;;;;;;;122.73;66.50;;;;;;;;;;5076085;28;20210;-74
2021/09/17 04:15:15;;;;;;;114.13;64.67;;;;;;;;;;5075453;28;20218;-73
2021/09/17 04:17:42;;;;;;;130.53;66.73;;;;;;;;;;5076812;28;20252;-73
2021/09/17 04:20:09;;;;;;;115.50;62.90;;;;;;;;;;5074341;28;20267;-74
2021/09/17 04:22:36;;;;;;;99.23;60.43;;;;;;;;;;5074031;28;20268;-74
2021/09/17 04:25:03;;;;;;;112.60;60.00;;;;;;;;;;5076979;28;20214;-74
2021/09/17 04:27:29;;;;;;;121.50;62.93;;;;;;;;;;5073589;28;20214;-73
2021/09/17 04:29:57;;;;;;;118.40;62.13;;;;;;;;;;5074418;28;20279;-74
2021/09/17 04:32:23;;;;;;;112.15;75.93;;;;;;;;;;5072298;28;20430;-72
2021/09/17 04:34:49;;;;;;;113.50;64.63;;;;;;;;;;5075645;28;20205;-73
2021/09/17 04:37:17;;;;;;;118.57;65.97;;;;;;;;;;5073572;28;20260;-72
2021/09/17 04:39:43;;;;;;;129.70;65.70;;;;;;;;;;5075388;28;20209;-72
2021/09/17 04:42:10;;;;;;;111.43;61.87;;;;;;;;;;5076271;28;20218;-72
2021/09/17 04:44:36;;;;;;;109.57;60.53;;;;;;;;;;5073706;28;20214;-72
2021/09/17 04:47:04;;;;;;;132.63;66.33;;;;;;;;;;5073903;28;20233;-72
2021/09/17 04:49:31;;;;;;;111.33;59.93;;;;;;;;;;5075438;28;20214;-72
2021/09/17 04:51:57;;;;;;;135.23;67.60;;;;;;;;;;5073702;28;20240;-72
2021/09/17 04:54:23;;;;;;;139.80;69.33;;;;;;;;;;5073902;28;20620;-72
2021/09/17 04:56:50;;;;;;;151.37;72.67;;;;;;;;;;5073967;28;20264;-72
2021/09/17 04:59:16;;;;;;;104.83;59.90;;;;;;;;;;5074302;28;20207;-73
2021/09/17 05:01:43;;;;;;;132.20;66.50;;;;;;;;;;5076194;28;20311;-73
2021/09/17 05:04:10;;;;;;;119.43;60.27;;;;;;;;;;5075699;28;20219;-73
2021/09/17 05:06:37;;;;;;;132.57;65.27;;;;;;;;;;5072379;28;20283;-73
2021/09/17 05:09:03;;;;;;;94.27;56.53;;;;;;;;;;5075057;28;20223;-73
2021/09/17 05:11:30;;;;;;;101.90;60.10;;;;;;;;;;5074399;28;20295;-73
2021/09/17 05:13:56;;;;;;;128.37;66.50;;;;;;;;;;5074804;28;20275;-73
2021/09/17 05:16:22;;;;;;;138.67;70.30;;;;;;;;;;5073288;28;20209;-73
2021/09/17 05:18:49;;;;;;;120.73;63.63;;;;;;;;;;5073696;28;20519;-72
2021/09/17 05:21:17;;;;;;;118.33;64.90;;;;;;;;;;5073432;28;20205;-72
2021/09/17 05:23:43;;;;;;;128.87;66.90;;;;;;;;;;5072133;28;20214;-72
2021/09/17 05:26:10;;;;;;;117.40;62.50;;;;;;;;;;5072491;28;20647;-73
2021/09/17 05:28:36;;;;;;;108.50;60.97;;;;;;;;;;5073544;28;20267;-73
2021/09/17 05:31:02;;;;;;;109.73;59.40;;;;;;;;;;5071681;28;20282;-72
2021/09/17 05:33:29;;;;;;;130.40;63.60;;;;;;;;;;5073936;28;20268;-72
2021/09/17 05:35:55;;;;;;;109.50;62.07;;;;;;;;;;5072860;28;20612;-72
2021/09/17 05:38:23;;;;;;;110.20;64.13;;;;;;;;;;5074122;28;20630;-72
2021/09/17 05:40:49;;;;;;;96.27;55.17;;;;;;;;;;5075634;28;20260;-72
2021/09/17 05:43:16;;;;;;;121.13;59.77;;;;;;;;;;5073513;28;20208;-72
2021/09/17 05:45:42;;;;;;;113.83;61.70;;;;;;;;;;5073690;28;20220;-73
2021/09/17 05:48:09;;;;;;;111.77;60.57;;;;;;;;;;5072552;28;20584;-72
2021/09/17 05:50:35;;;;;;;107.30;58.93;;;;;;;;;;5076620;28;20306;-72
2021/09/17 05:53:01;;;;;;;91.37;56.63;;;;;;;;;;5077594;28;20213;-72
2021/09/17 05:55:29;;;;;;;100.70;57.60;;;;;;;;;;5076947;28;20575;-72
2021/09/17 05:57:56;;;;;;;103.20;60.10;;;;;;;;;;5076825;28;20208;-72
2021/09/17 06:00:23;;;;;;;125.13;59.40;;;;;;;;;;5077864;28;20700;-73
2021/09/17 06:02:49;;;;;;;112.60;62.23;;;;;;;;;;5076452;28;20293;-72
2021/09/17 06:05:16;;;;;;;103.63;60.33;;;;;;;;;;5078536;28;20257;-72
2021/09/17 06:07:44;;;;;;;91.63;58.97;;;;;;;;;;5076186;28;20203;-73
2021/09/17 06:10:12;;;;;;;106.70;60.03;;;;;;;;;;5076241;28;20564;-72
2021/09/17 06:12:40;;;;;;;97.33;58.90;;;;;;;;;;5075967;28;20215;-72
2021/09/17 06:15:07;;;;;;;101.43;58.77;;;;;;;;;;5074705;28;20496;-73
2021/09/17 06:17:34;;;;;;;94.87;57.13;;;;;;;;;;5073070;28;20292;-73
2021/09/17 06:20:00;;;;;;;101.33;57.93;;;;;;;;;;5074193;28;20215;-73
2021/09/17 06:22:26;;;;;;;94.43;59.43;;;;;;;;;;5075111;28;20222;-73
2021/09/17 06:24:53;;;;;;;103.50;59.20;;;;;;;;;;5074728;28;20265;-72
2021/09/17 06:27:19;;;;;;;103.87;58.73;;;;;;;;;;5073227;28;20706;-73
2021/09/17 06:29:47;;;;;;;97.37;57.23;;;;;;;;;;5074669;28;20318;-73
2021/09/17 06:32:13;;;;;;;96.20;56.17;;;;;;;;;;5075132;28;20239;-73
2021/09/17 06:34:40;;;;;;;98.43;58.23;;;;;;;;;;5075699;28;20214;-73
2021/09/17 06:37:06;;;;;;;94.67;60.03;;;;;;;;;;5076379;28;20285;-73
2021/09/17 06:39:33;;;;;;;92.43;58.67;;;;;;;;;;5076969;28;20219;-73
2021/09/17 06:41:59;;;;;;;92.37;59.10;;;;;;;;;;5073344;28;20239;-74
2021/09/17 06:44:26;;;;;;;89.80;58.47;;;;;;;;;;5075497;28;20218;-72
2021/09/17 06:46:54;;;;;;;88.23;56.20;;;;;;;;;;5075146;28;20226;-72
2021/09/17 06:49:20;;;;;;;102.87;63.17;;;;;;;;;;5075043;28;20223;-72
2021/09/17 06:51:47;;;;;;;93.20;59.97;;;;;;;;;;5073797;28;20240;-72
2021/09/17 06:54:13;;;;;;;101.73;62.63;;;;;;;;;;5075352;28;20220;-71
2021/09/17 06:56:39;;;;;;;100.83;63.77;;;;;;;;;;5073997;28;20224;-71
2021/09/17 06:59:06;;;;;;;100.83;62.93;;;;;;;;;;5071438;28;20697;-71
2021/09/17 07:01:32;;;;;;;101.97;62.83;;;;;;;;;;5072369;28;20234;-71
2021/09/17 07:04:00;;;;;;;123.80;65.13;;;;;;;;;;5074814;28;20218;-71
2021/09/17 07:06:26;;;;;;;107.17;64.30;;;;;;;;;;5070514;28;20213;-71
2021/09/17 07:08:54;;;;;;;98.77;61.17;;;;;;;;;;5073362;28;20217;-71
2021/09/17 07:11:22;;;;;;;96.47;63.13;;;;;;;;;;5074144;28;20228;-71
2021/09/17 07:13:49;;;;;;;101.90;65.63;;;;;;;;;;5074509;28;20679;-71
2021/09/17 07:16:15;;;;;;;96.00;64.03;;;;;;;;;;5072513;28;20660;-71
2021/09/17 07:18:42;;;;;;;99.77;65.17;;;;;;;;;;5075293;28;20280;-71
2021/09/17 07:21:09;;;;;;;104.13;67.93;;;;;;;;;;5074769;28;20216;-71
2021/09/17 07:23:36;;;;;;;93.23;64.53;;;;;;;;;;5072281;28;20215;-71
2021/09/17 08:07:11;;;;;;;65.73;57.53;;;;;;;;;;5029530;28;20581;-71
2021/09/17 08:09:37;;;;;;;81.17;58.37;;;;;;;;;;5022164;28;20582;-72
2021/09/17 08:12:04;;;;;;;73.93;56.37;;;;;;;;;;5022559;28;20284;-72
2021/09/17 08:14:31;;;;;;;78.90;59.20;;;;;;;;;;5022929;28;20214;-72
2021/09/17 08:16:57;;;;;;;77.77;59.23;;;;;;;;;;5022123;28;20280;-72
2021/09/17 08:19:24;;;;;;;78.67;59.77;;;;;;;;;;5022542;28;20219;-71
2021/09/17 08:21:51;;;;;;;88.40;61.57;;;;;;;;;;5022834;28;20207;-72
2021/09/17 08:24:18;;;;;;;77.23;59.20;;;;;;;;;;5022430;28;20886;-72
2021/09/17 08:26:47;;;;;;;82.03;57.13;;;;;;;;;;5022071;28;20258;-72
2021/09/17 08:29:14;;;;;;;80.97;56.83;;;;;;;;;;5022538;28;20242;-72
2021/09/17 08:31:41;;;;;;;72.77;56.10;;;;;;;;;;5022351;28;20222;-72
2021/09/17 08:34:09;;;;;;;100.60;62.10;;;;;;;;;;5022505;28;20215;-73
2021/09/17 08:36:36;;;;;;;78.10;57.60;;;;;;;;;;5021961;28;20247;-73
2021/09/17 08:39:04;;;;;;;76.90;60.03;;;;;;;;;;5022727;28;20222;-72
2021/09/17 08:41:32;;;;;;;75.33;58.03;;;;;;;;;;5021887;28;20230;-72
2021/09/17 08:43:58;;;;;;;69.37;56.30;;;;;;;;;;5022515;28;20266;-72
2021/09/17 08:46:25;;;;;;;71.60;57.77;;;;;;;;;;5022363;28;20735;-72
2021/09/17 08:48:52;;;;;;;74.53;58.70;;;;;;;;;;5021430;28;20294;-72
2021/09/17 08:51:19;;;;;;;80.33;63.07;;;;;;;;;;5022058;28;20668;-72
2021/09/17 08:53:46;;;;;;;70.27;57.37;;;;;;;;;;5021566;28;20211;-72
2021/09/17 08:56:15;;;;;;;74.30;60.20;;;;;;;;;;5021220;28;20243;-73
2021/09/17 08:58:43;;;;;;;79.90;63.77;;;;;;;;;;5022181;28;20239;-73
2021/09/17 09:01:25;;;;;;;71.27;59.70;;;;;;;;;;5021810;28;20218;-73
2021/09/17 09:03:52;;;;;;;76.07;59.77;;;;;;;;;;5021870;28;20554;-73
2021/09/17 09:06:19;;;;;;;66.23;57.50;;;;;;;;;;5016865;28;20250;-73
2021/09/17 09:08:46;;;;;;;74.07;55.97;;;;;;;;;;5008563;28;20212;-73
2021/09/17 09:11:17;;;;;;;76.17;61.20;;;;;;;;;;5009354;28;20235;-73
2021/09/17 09:14:03;;;;;;;63.77;52.50;;;;;;;;;;5008540;28;20235;-73
2021/09/17 09:16:30;;;;;;;66.40;54.73;;;;;;;;;;5007793;28;20225;-73
2021/09/17 09:18:56;;;;;;;69.97;52.60;;;;;;;;;;5008458;28;20224;-73
2021/09/17 09:21:28;;;;;;;69.70;55.63;;;;;;;;;;5009164;28;20219;-72
2021/09/17 09:24:13;;;;;;;184.80;68.20;;;;;;;;;;5008593;28;20671;-72
2021/09/17 09:26:39;;;;;;;79.57;54.67;;;;;;;;;;5008224;28;20234;-73
2021/09/17 09:29:25;;;;;;;68.00;56.67;;;;;;;;;;5007942;28;20671;-73
2021/09/17 09:31:52;;;;;;;65.93;55.20;;;;;;;;;;5009220;28;20219;-73
2021/09/17 09:34:18;;;;;;;67.20;54.07;;;;;;;;;;5007898;28;20281;-73
2021/09/17 09:36:44;;;;;;;66.73;55.67;;;;;;;;;;5007014;28;20356;-73
2021/09/17 09:39:11;;;;;;;73.33;56.63;;;;;;;;;;5007750;28;21180;-72
2021/09/17 09:41:39;;;;;;;68.80;56.53;;;;;;;;;;5006525;28;20693;-73
2021/09/17 09:44:14;;;;;;;64.87;54.20;;;;;;;;;;5008174;28;20219;-73
2021/09/17 09:46:41;;;;;;;67.27;54.30;;;;;;;;;;5007574;28;20298;-71
2021/09/17 09:49:18;;;;;;;68.77;56.93;;;;;;;;;;5008247;28;20233;-72
2021/09/17 09:51:56;;;;;;;69.20;56.30;;;;;;;;;;5007651;28;20214;-72
2021/09/17 09:54:24;;;;;;;67.73;57.20;;;;;;;;;;5007533;28;20305;-72
2021/09/17 09:56:52;;;;;;;69.90;57.17;;;;;;;;;;5007837;28;20243;-72
2021/09/17 09:59:24;;;;;;;70.83;56.37;;;;;;;;;;5008230;28;20293;-71
2021/09/17 10:01:53;;;;;;;67.00;54.90;;;;;;;;;;5007443;28;20213;-71
2021/09/17 10:04:21;;;;;;;63.70;53.97;;;;;;;;;;5007292;28;20208;-72
2021/09/17 10:06:47;;;;;;;63.20;54.40;;;;;;;;;;5007520;28;20630;-72
2021/09/17 10:09:14;;;;;;;75.87;56.30;;;;;;;;;;5008172;28;20216;-72
2021/09/17 10:11:41;;;;;;;66.10;52.90;;;;;;;;;;5006643;28;20247;-72
2021/09/17 10:14:12;;;;;;;56.77;50.03;;;;;;;;;;5007909;28;20226;-71
2021/09/17 10:16:42;;;;;;;60.17;51.80;;;;;;;;;;5006959;28;20238;-71
2021/09/17 10:19:09;;;;;;;118.47;57.20;;;;;;;;;;5006673;28;20219;-72
2021/09/17 10:21:49;;;;;;;67.03;47.30;;;;;;;;;;5007449;28;20266;-72
2021/09/17 10:24:35;;;;;;;64.60;49.03;;;;;;;;;;5007642;28;20700;-72
2021/09/17 10:27:04;;;;;;;47.50;42.50;;;;;;;;;;5007600;28;20227;-71
2021/09/17 10:29:32;;;;;;;53.43;46.33;;;;;;;;;;5006203;28;20266;-71
2021/09/17 10:32:01;;;;;;;52.20;46.47;;;;;;;;;;5007556;28;20223;-72
2021/09/17 10:34:32;;;;;;;53.33;44.83;;;;;;;;;;5006751;28;20219;-71
2021/09/17 10:36:59;;;;;;;49.97;43.07;;;;;;;;;;5006841;28;20721;-73
2021/09/17 10:39:26;;;;;;;50.77;43.80;;;;;;;;;;5007369;28;20572;-73
2021/09/17 10:42:10;;;;;;;60.10;44.93;;;;;;;;;;5007260;28;20239;-73
2021/09/17 10:45:13;;;;;;;43.67;38.97;;;;;;;;;;5006719;28;20623;-72
2021/09/17 10:48:00;;;;;;;47.97;42.30;;;;;;;;;;5006385;28;20274;-72
2021/09/17 10:50:42;;;;;;;47.10;41.57;;;;;;;;;;5006453;28;20739;-73
2021/09/17 10:53:09;;;;;;;57.43;41.23;;;;;;;;;;5006508;28;20223;-72
2021/09/17 10:56:02;;;;;;;48.60;40.43;;;;;;;;;;5006740;28;20247;-72
2021/09/17 10:58:30;;;;;;;49.53;40.03;;;;;;;;;;5006735;28;20211;-73
2021/09/17 11:00:58;;;;;;;42.57;37.97;;;;;;;;;;5007183;28;20259;-72
2021/09/17 11:03:59;;;;;;;43.43;38.63;;;;;;;;;;5006370;28;20231;-72
2021/09/17 11:06:27;;;;;;;44.03;39.23;;;;;;;;;;4973045;28;20247;-72
2021/09/17 11:08:55;;;;;;;46.40;41.40;;;;;;;;;;5006643;28;20290;-72
2021/09/17 11:11:23;;;;;;;44.30;39.57;;;;;;;;;;5006312;28;20623;-71
2021/09/17 11:13:51;;;;;;;44.90;38.90;;;;;;;;;;5006570;28;20218;-71
2021/09/17 11:16:18;;;;;;;40.50;35.53;;;;;;;;;;5006397;28;20589;-71
2021/09/17 11:18:54;;;;;;;139.23;43.97;;;;;;;;;;5006085;28;20639;-71
2021/09/17 11:21:23;;;;;;;42.70;38.20;;;;;;;;;;5005974;28;20219;-72
2021/09/17 11:23:51;;;;;;;44.50;37.63;;;;;;;;;;5006317;28;20217;-72
2021/09/17 11:26:19;;;;;;;62.47;37.07;;;;;;;;;;5005873;28;20646;-72
2021/09/17 11:28:57;;;;;;;54.63;39.50;;;;;;;;;;5005535;28;20274;-71
2021/09/17 11:31:25;;;;;;;168.37;47.53;;;;;;;;;;5004946;28;20341;-71
2021/09/17 11:33:55;;;;;;;42.93;34.53;;;;;;;;;;5005738;28;20221;-73
2021/09/17 11:36:35;;;;;;;37.50;32.13;;;;;;;;;;5005920;28;20597;-72
2021/09/17 11:39:11;;;;;;;37.00;31.67;;;;;;;;;;5006276;28;20553;-72
2021/09/17 11:41:38;;;;;;;37.37;33.47;;;;;;;;;;5006312;28;20233;-72
2021/09/17 11:44:04;;;;;;;39.07;34.67;;;;;;;;;;5005647;28;20221;-72
2021/09/17 11:46:32;;;;;;;40.90;35.43;;;;;;;;;;5005531;28;20215;-72
2021/09/17 11:48:59;;;;;;;48.27;39.87;;;;;;;;;;5006074;28;20216;-73
2021/09/17 11:51:26;;;;;;;37.67;33.63;;;;;;;;;;5005967;28;20271;-72
2021/09/17 11:53:53;;;;;;;41.77;34.67;;;;;;;;;;5005846;28;20262;-72
2021/09/17 11:56:20;;;;;;;37.67;33.67;;;;;;;;;;5005927;28;21032;-73
2021/09/17 11:58:48;;;;;;;39.00;34.97;;;;;;;;;;5005666;28;20219;-71
2021/09/17 12:01:23;;;;;;;41.93;37.37;;;;;;;;;;5006257;28;20218;-72
2021/09/17 12:03:50;;;;;;;43.70;37.20;;;;;;;;;;5005543;28;20280;-73
2021/09/17 12:06:16;;;;;;;46.87;39.00;;;;;;;;;;5005302;28;20306;-73
2021/09/17 12:08:43;;;;;;;48.33;40.43;;;;;;;;;;5005642;28;20266;-72
2021/09/17 12:11:11;;;;;;;48.03;40.10;;;;;;;;;;5005852;28;20227;-73
2021/09/17 12:13:37;;;;;;;45.67;40.83;;;;;;;;;;5005843;28;20310;-72
2021/09/17 12:16:06;;;;;;;48.43;42.80;;;;;;;;;;5006059;28;21078;-72
2021/09/17 12:18:33;;;;;;;49.80;43.57;;;;;;;;;;5005863;28;20311;-72
2021/09/17 12:21:02;;;;;;;51.50;40.80;;;;;;;;;;5005599;28;20218;-72
2021/09/17 12:23:39;;;;;;;44.97;39.57;;;;;;;;;;5005798;28;20213;-71
2021/09/17 12:26:08;;;;;;;50.63;42.97;;;;;;;;;;5005661;28;20683;-71
2021/09/17 12:28:36;;;;;;;68.53;46.07;;;;;;;;;;5005083;28;20222;-71
2021/09/17 12:31:03;;;;;;;57.67;49.07;;;;;;;;;;5004231;28;20267;-71
2021/09/17 12:33:33;;;;;;;57.60;50.83;;;;;;;;;;5004630;28;20220;-71
2021/09/17 12:36:08;;;;;;;60.63;52.27;;;;;;;;;;5005603;28;20212;-71
2021/09/17 12:38:37;;;;;;;60.73;52.20;;;;;;;;;;5005687;28;20817;-71
2021/09/17 12:41:09;;;;;;;59.10;50.03;;;;;;;;;;5005521;28;20726;-71
2021/09/17 12:43:37;;;;;;;61.40;53.30;;;;;;;;;;5009006;28;20216;-71
2021/09/17 12:46:05;;;;;;;60.83;50.43;;;;;;;;;;5008747;28;20262;-71
2021/09/17 12:48:34;;;;;;;62.37;49.77;;;;;;;;;;5008636;28;20212;-73
2021/09/17 12:51:02;;;;;;;59.07;52.77;;;;;;;;;;5008793;28;20212;-73
2021/09/17 12:53:33;;;;;;;54.40;48.27;;;;;;;;;;5007219;28;20257;-73
2021/09/17 12:56:05;;;;;;;56.23;50.20;;;;;;;;;;5008531;28;20691;-73
2021/09/17 12:58:32;;;;;;;59.93;52.23;;;;;;;;;;5008122;28;20575;-73
2021/09/17 13:01:01;;;;;;;59.27;52.53;;;;;;;;;;5007553;28;20227;-73
2021/09/17 13:03:28;;;;;;;68.17;55.93;;;;;;;;;;5007713;28;20215;-73
2021/09/17 13:05:56;;;;;;;78.20;58.10;;;;;;;;;;5007176;28;20297;-75
2021/09/17 13:08:23;;;;;;;81.97;61.43;;;;;;;;;;5006963;28;20273;-77
2021/09/17 13:10:51;;;;;;;88.70;67.57;;;;;;;;;;5008495;28;20267;-77
2021/09/17 13:13:18;;;;;;;85.80;66.73;;;;;;;;;;5008587;28;20613;-76
2021/09/17 13:15:45;;;;;;;77.57;62.57;;;;;;;;;;5009195;28;20270;-75
2021/09/17 13:18:13;;;;;;;91.77;69.23;;;;;;;;;;5007514;28;20230;-74
2021/09/17 13:20:42;;;;;;;93.00;68.77;;;;;;;;;;5009137;28;20236;-74
2021/09/17 13:23:09;;;;;;;86.97;63.43;;;;;;;;;;5007812;28;20227;-74
2021/09/17 13:25:39;;;;;;;79.33;60.63;;;;;;;;;;5009255;28;20262;-74
2021/09/17 13:28:07;;;;;;;85.17;64.63;;;;;;;;;;5008373;28;20297;-74
2021/09/17 13:30:37;;;;;;;78.33;63.70;;;;;;;;;;5006683;28;20225;-73
2021/09/17 13:33:04;;;;;;;53.17;46.57;;;;;;;;;;5008323;28;20661;-73
2021/09/17 13:35:34;;;;;;;53.83;44.17;;;;;;;;;;5007110;28;20273;-73
2021/09/17 13:38:01;;;;;;;40.37;36.17;;;;;;;;;;5007629;28;20250;-73
2021/09/17 13:40:29;;;;;;;40.23;35.97;;;;;;;;;;5006902;28;21181;-74
2021/09/17 13:42:56;;;;;;;45.53;40.53;;;;;;;;;;5007554;28;20228;-74
2021/09/17 13:45:25;;;;;;;43.90;39.00;;;;;;;;;;5006850;28;20223;-74
2021/09/17 13:47:52;;;;;;;43.43;38.60;;;;;;;;;;5007431;28;20793;-74
2021/09/17 13:50:21;;;;;;;45.30;40.53;;;;;;;;;;5007432;28;20275;-74
2021/09/17 13:52:51;;;;;;;42.73;38.27;;;;;;;;;;5007221;28;20218;-74
2021/09/17 13:55:19;;;;;;;37.13;33.00;;;;;;;;;;5007452;28;20204;-74
2021/09/17 13:57:46;;;;;;;36.37;32.87;;;;;;;;;;5006615;28;20330;-74
2021/09/17 14:00:13;;;;;;;39.30;35.13;;;;;;;;;;5007526;28;20215;-74
2021/09/17 14:02:40;;;;;;;36.03;32.40;;;;;;;;;;5006255;28;20215;-74
2021/09/17 14:05:08;;;;;;;31.17;27.83;;;;;;;;;;5006902;28;20239;-74
2021/09/17 14:07:35;;;;;;;38.43;32.43;;;;;;;;;;5006838;28;20223;-74
2021/09/17 14:10:04;;;;;;;35.60;32.10;;;;;;;;;;5006468;28;20223;-74
2021/09/17 14:12:31;;;;;;;35.13;31.33;;;;;;;;;;5005089;28;20553;-74
2021/09/17 14:14:57;;;;;;;36.67;32.77;;;;;;;;;;5006193;28;20214;-74
2021/09/17 14:17:24;;;;;;;37.97;34.03;;;;;;;;;;5006200;28;20235;-74
2021/09/17 14:19:50;;;;;;;35.87;32.00;;;;;;;;;;5006983;28;20631;-74
2021/09/17 14:22:17;;;;;;;33.70;30.27;;;;;;;;;;5005861;28;20228;-74
2021/09/17 14:24:43;;;;;;;31.40;28.10;;;;;;;;;;5005053;28;20281;-74
2021/09/17 14:27:11;;;;;;;31.27;28.03;;;;;;;;;;5007013;28;20580;-74
2021/09/17 14:29:38;;;;;;;30.70;27.27;;;;;;;;;;5006190;28;20620;-74
2021/09/17 14:32:05;;;;;;;33.53;28.77;;;;;;;;;;5006683;28;20219;-73
2021/09/17 14:34:32;;;;;;;34.30;30.87;;;;;;;;;;5006140;28;20549;-74
2021/09/17 14:36:58;;;;;;;32.33;29.33;;;;;;;;;;5005901;28;20240;-73
2021/09/17 14:39:24;;;;;;;35.90;30.50;;;;;;;;;;5005985;28;20227;-74
2021/09/17 14:41:51;;;;;;;33.27;29.73;;;;;;;;;;5005689;28;20234;-74
2021/09/17 14:44:19;;;;;;;32.67;29.27;;;;;;;;;;5006368;28;20284;-74
2021/09/17 14:46:46;;;;;;;32.23;28.80;;;;;;;;;;5004740;28;20223;-74
2021/09/17 14:49:12;;;;;;;29.47;25.67;;;;;;;;;;5006502;28;20542;-74
2021/09/17 14:51:39;;;;;;;31.47;27.23;;;;;;;;;;5006017;28;20222;-73
2021/09/17 14:54:05;;;;;;;23.63;21.23;;;;;;;;;;5004996;28;20949;-73
2021/09/17 14:56:31;;;;;;;21.57;19.43;;;;;;;;;;5004897;28;20284;-73
2021/09/17 14:58:58;;;;;;;21.07;18.87;;;;;;;;;;5006090;28;20271;-73